Time;durP1;ratioP1;P1;durP2;ratioP2;P2;SDS_P1;SDS_P2;PMS_P1;PMS_P2;Temp;Humidity;BMP_temperature;BMP_pressure;BME280_temperature;BME280_humidity;BME280_pressure;Samples;Min_cycle;Max_cycle;Signal;HPM_P1;HPM_P2
2021/05/07 00:02:13;;;;;;;;;;;8.50;84.80;;;;;;4302442;33;20010;-70
2021/05/07 00:04:40;;;;;;;;;;;8.40;84.00;;;;;;4302950;33;20006;-70
2021/05/07 00:07:07;;;;;;;;;;;8.40;84.10;;;;;;4289547;33;20010;-70
2021/05/07 00:09:34;;;;;;;;;;;8.40;84.20;;;;;;4288887;33;20380;-70
2021/05/07 00:12:03;;;;;;;;;;;8.40;84.20;;;;;;4302646;33;20343;-70
2021/05/07 00:14:30;;;;;;;;;;;8.30;84.00;;;;;;4302223;33;20010;-71
2021/05/07 00:16:57;;;;;;;;;;;8.30;84.20;;;;;;4302731;33;20062;-71
2021/05/07 00:19:24;;;;;;;;;;;8.40;84.40;;;;;;4289282;33;20032;-71
2021/05/07 00:21:51;;;;;;;;;;;8.30;84.30;;;;;;4302721;33;20022;-70
2021/05/07 00:24:18;;;;;;;;;;;8.40;84.30;;;;;;4300918;33;20016;-71
2021/05/07 00:26:47;;;;;;;;;;;8.30;84.30;;;;;;4302434;33;20010;-70
2021/05/07 00:29:13;;;;;;;;;;;8.40;84.20;;;;;;4302346;33;20404;-70
2021/05/07 00:31:40;;;;;;;;;;;8.40;84.00;;;;;;4301686;33;20016;-70
2021/05/07 00:34:07;;;;;;;;;;;8.40;84.10;;;;;;4302595;33;20005;-71
2021/05/07 00:36:34;;;;;;;;;;;8.40;84.00;;;;;;4302370;33;20009;-70
2021/05/07 00:39:00;;;;;;;;;;;8.40;84.00;;;;;;4302499;33;20005;-71
2021/05/07 00:41:27;;;;;;;;;;;8.40;83.90;;;;;;4302131;33;20015;-70
2021/05/07 00:43:53;;;;;;;;;;;8.30;83.90;;;;;;4289092;33;20376;-70
2021/05/07 00:46:20;;;;;;;;;;;8.30;84.00;;;;;;4289093;33;20442;-71
2021/05/07 00:48:47;;;;;;;;;;;8.30;84.00;;;;;;4302354;33;20010;-70
2021/05/07 00:51:15;;;;;;;;;;;8.30;84.00;;;;;;4301033;33;20024;-71
2021/05/07 00:53:41;;;;;;;;;;;8.20;84.00;;;;;;4302393;33;20006;-70
2021/05/07 00:56:08;;;;;;;;;;;8.20;84.10;;;;;;4301617;33;20069;-70
2021/05/07 00:58:35;;;;;;;;;;;8.30;84.10;;;;;;4302093;33;20018;-71
2021/05/07 01:01:01;;;;;;;;;;;8.20;83.90;;;;;;4290689;33;20033;-70
2021/05/07 01:03:28;;;;;;;;;;;8.20;83.90;;;;;;4304670;33;20024;-70
2021/05/07 01:05:55;;;;;;;;;;;8.20;83.80;;;;;;4292160;33;20010;-71
2021/05/07 01:08:22;;;;;;;;;;;8.20;83.80;;;;;;4305331;33;20013;-70
2021/05/07 01:10:48;;;;;;;;;;;8.20;83.80;;;;;;4304776;33;20018;-70
2021/05/07 01:13:15;;;;;;;;;;;8.20;83.70;;;;;;4305080;33;20020;-70
2021/05/07 01:15:42;;;;;;;;;;;8.20;83.70;;;;;;4304441;33;20388;-70
2021/05/07 01:18:09;;;;;;;;;;;8.20;83.70;;;;;;4304787;33;20025;-71
2021/05/07 01:20:37;;;;;;;;;;;8.10;83.60;;;;;;4303810;33;20124;-70
2021/05/07 01:23:05;;;;;;;;;;;8.10;83.60;;;;;;4304561;33;20006;-71
2021/05/07 01:25:33;;;;;;;;;;;8.10;83.60;;;;;;4304438;33;20438;-71
2021/05/07 01:28:02;;;;;;;;;;;8.10;83.60;;;;;;4305073;33;20006;-71
2021/05/07 01:30:34;;;;;;;;;;;8.00;83.50;;;;;;4305100;33;20020;-71
2021/05/07 01:33:00;;;;;;;;;;;8.00;83.50;;;;;;4304291;33;20006;-71
2021/05/07 01:35:31;;;;;;;;;;;8.00;83.50;;;;;;4304279;33;20065;-70
2021/05/07 01:38:02;;;;;;;;;;;8.10;83.40;;;;;;4304609;33;20010;-71
2021/05/07 01:40:33;;;;;;;;;;;8.00;83.20;;;;;;4304772;33;20009;-71
2021/05/07 01:42:59;;;;;;;;;;;8.10;83.10;;;;;;4304651;33;20002;-71
2021/05/07 01:45:27;;;;;;;;;;;8.10;83.00;;;;;;4304313;33;20020;-71
2021/05/07 01:47:54;;;;;;;;;;;8.00;82.90;;;;;;4304507;33;20428;-71
2021/05/07 01:50:25;;;;;;;;;;;8.10;82.90;;;;;;4304894;33;20020;-71
2021/05/07 01:52:54;;;;;;;;;;;8.00;82.70;;;;;;4291709;33;20006;-70
2021/05/07 01:55:22;;;;;;;;;;;8.00;82.70;;;;;;4291258;33;20428;-70
2021/05/07 01:57:49;;;;;;;;;;;8.00;82.70;;;;;;4303735;33;20025;-71
2021/05/07 02:00:17;;;;;;;;;;;8.00;82.60;;;;;;4303995;33;20018;-70
2021/05/07 02:02:44;;;;;;;;;;;8.00;82.60;;;;;;4291021;33;20024;-71
2021/05/07 02:05:12;;;;;;;;;;;8.00;82.60;;;;;;4290691;33;20404;-70
2021/05/07 02:07:38;;;;;;;;;;;8.00;82.40;;;;;;4304162;33;20018;-70
2021/05/07 02:10:09;;;;;;;;;;;8.00;82.30;;;;;;4290946;33;20018;-70
2021/05/07 02:12:36;;;;;;;;;;;8.00;82.30;;;;;;4303474;33;20028;-70
2021/05/07 02:15:09;;;;;;;;;;;8.00;82.20;;;;;;4303828;33;20025;-70
2021/05/07 02:17:35;;;;;;;;;;;8.00;82.20;;;;;;4302999;33;20405;-71
2021/05/07 02:20:03;;;;;;;;;;;7.90;82.20;;;;;;4290965;33;20005;-71
2021/05/07 02:22:30;;;;;;;;;;;7.90;82.30;;;;;;4304314;33;20003;-71
2021/05/07 02:24:57;;;;;;;;;;;7.90;82.30;;;;;;4290981;33;20009;-70
2021/05/07 02:27:23;;;;;;;;;;;7.90;82.20;;;;;;4304457;33;20073;-71
2021/05/07 02:29:50;;;;;;;;;;;7.80;82.10;;;;;;4303854;33;20006;-70
2021/05/07 02:32:17;;;;;;;;;;;7.80;82.20;;;;;;4303916;33;20252;-71
2021/05/07 02:34:44;;;;;;;;;;;7.80;82.20;;;;;;4290957;33;20006;-71
2021/05/07 02:37:11;;;;;;;;;;;7.80;82.20;;;;;;4303816;33;20006;-71
2021/05/07 02:39:37;;;;;;;;;;;7.70;82.30;;;;;;4303922;33;20079;-70
2021/05/07 02:42:04;;;;;;;;;;;7.70;82.40;;;;;;4302482;33;20006;-71
2021/05/07 02:44:31;;;;;;;;;;;7.70;82.40;;;;;;4290483;33;20091;-71
2021/05/07 02:47:03;;;;;;;;;;;7.60;82.40;;;;;;4303588;33;20050;-71
2021/05/07 02:49:31;;;;;;;;;;;7.60;82.50;;;;;;4304025;33;20044;-70
2021/05/07 02:52:00;;;;;;;;;;;7.60;82.70;;;;;;4290595;33;20063;-71
2021/05/07 02:54:26;;;;;;;;;;;7.50;82.70;;;;;;4303153;33;20415;-70
2021/05/07 02:56:53;;;;;;;;;;;7.60;82.80;;;;;;4290377;33;20013;-71
2021/05/07 02:59:20;;;;;;;;;;;7.60;82.70;;;;;;4302771;33;20020;-71
2021/05/07 03:01:46;;;;;;;;;;;7.60;82.70;;;;;;4303347;33;20040;-71
2021/05/07 03:04:13;;;;;;;;;;;7.60;82.70;;;;;;4303549;33;19998;-71
2021/05/07 03:06:39;;;;;;;;;;;7.50;82.70;;;;;;4303292;33;20017;-71
2021/05/07 03:09:06;;;;;;;;;;;7.50;82.80;;;;;;4303309;33;20018;-71
2021/05/07 03:11:33;;;;;;;;;;;7.50;82.90;;;;;;4302780;33;20569;-70
2021/05/07 03:14:00;;;;;;;;;;;7.50;83.00;;;;;;4302227;33;20014;-71
2021/05/07 03:16:26;;;;;;;;;;;7.50;83.20;;;;;;4302414;33;20351;-70
2021/05/07 03:18:53;;;;;;;;;;;7.50;83.30;;;;;;4303222;33;20002;-71
2021/05/07 03:21:22;;;;;;;;;;;7.50;83.30;;;;;;4302205;33;20021;-71
2021/05/07 03:23:49;;;;;;;;;;;7.50;83.30;;;;;;4289835;33;20396;-71
2021/05/07 03:26:16;;;;;;;;;;;7.50;83.40;;;;;;4302836;33;20024;-71
2021/05/07 03:28:48;;;;;;;;;;;7.50;83.60;;;;;;4290200;33;20441;-71
2021/05/07 03:31:14;;;;;;;;;;;7.50;84.10;;;;;;4302996;33;20018;-71
2021/05/07 03:33:44;;;;;;;;;;;7.50;84.10;;;;;;4290164;33;20006;-71
2021/05/07 03:36:11;;;;;;;;;;;7.50;84.10;;;;;;4303133;33;20014;-71
2021/05/07 03:38:38;;;;;;;;;;;7.50;84.20;;;;;;4302630;33;20073;-71
2021/05/07 03:41:05;;;;;;;;;;;7.50;84.40;;;;;;4302910;33;20002;-71
2021/05/07 03:43:32;;;;;;;;;;;7.50;84.40;;;;;;4301518;33;20010;-71
2021/05/07 03:45:58;;;;;;;;;;;7.50;84.50;;;;;;4302509;33;20422;-71
2021/05/07 03:48:25;;;;;;;;;;;7.50;84.40;;;;;;4302927;33;20017;-71
2021/05/07 03:50:52;;;;;;;;;;;7.50;84.60;;;;;;4303113;33;20044;-71
2021/05/07 03:53:19;;;;;;;;;;;7.50;84.80;;;;;;4302720;33;20049;-71
2021/05/07 03:55:46;;;;;;;;;;;7.50;84.80;;;;;;4302393;33;20420;-71
2021/05/07 03:58:13;;;;;;;;;;;7.40;84.80;;;;;;4303126;33;20010;-71
2021/05/07 04:00:39;;;;;;;;;;;7.40;85.00;;;;;;4302915;33;20024;-71
2021/05/07 04:03:06;;;;;;;;;;;7.40;85.10;;;;;;4302093;33;20019;-71
2021/05/07 04:05:34;;;;;;;;;;;7.40;85.20;;;;;;4288996;33;20011;-71
2021/05/07 04:08:21;;;;;;;;;;;7.30;85.30;;;;;;4302650;33;20025;-71
2021/05/07 04:11:02;;;;;;;;;;;7.30;85.30;;;;;;4289414;33;20518;-71
2021/05/07 04:13:39;;;;;;;;;;;7.30;85.50;;;;;;4289263;33;20057;-71
2021/05/07 04:16:09;;;;;;;;;;;7.30;85.60;;;;;;4302584;33;20471;-71
2021/05/07 04:18:41;;;;;;;;;;;7.30;85.50;;;;;;4302694;33;20401;-71
2021/05/07 04:21:07;;;;;;;;;;;7.40;85.30;;;;;;4302206;33;20010;-71
2021/05/07 04:23:34;;;;;;;;;;;7.30;85.20;;;;;;4301410;33;20010;-71
2021/05/07 04:26:01;;;;;;;;;;;7.40;85.40;;;;;;4302834;33;20020;-71
2021/05/07 04:28:28;;;;;;;;;;;7.30;85.50;;;;;;4289562;33;20509;-71
2021/05/07 04:30:54;;;;;;;;;;;7.30;85.50;;;;;;4302143;33;23021;-71
2021/05/07 04:33:21;;;;;;;;;;;7.30;85.60;;;;;;4302091;33;19998;-70
2021/05/07 04:35:48;;;;;;;;;;;7.30;85.50;;;;;;4304140;33;20080;-71
2021/05/07 04:38:14;;;;;;;;;;;7.30;85.70;;;;;;4304284;33;20010;-71
2021/05/07 04:40:41;;;;;;;;;;;7.30;85.70;;;;;;4305156;33;20018;-71
2021/05/07 04:43:08;;;;;;;;;;;7.30;85.50;;;;;;4305445;33;20088;-70
2021/05/07 04:45:35;;;;;;;;;;;7.30;85.70;;;;;;4305064;33;20010;-71
2021/05/07 04:48:04;;;;;;;;;;;7.30;85.70;;;;;;4304353;33;20430;-70
2021/05/07 04:50:31;;;;;;;;;;;7.20;85.80;;;;;;4305313;33;20013;-71
2021/05/07 04:52:57;;;;;;;;;;;7.20;85.90;;;;;;4304378;33;20076;-71
2021/05/07 04:55:24;;;;;;;;;;;7.20;86.10;;;;;;4291779;33;20007;-71
2021/05/07 04:57:52;;;;;;;;;;;7.10;86.00;;;;;;4292171;33;20367;-70
2021/05/07 05:00:19;;;;;;;;;;;7.20;86.20;;;;;;4280396;33;20006;-70
2021/05/07 05:02:46;;;;;;;;;;;7.10;86.20;;;;;;4292014;33;20010;-70
2021/05/07 05:05:13;;;;;;;;;;;7.10;86.10;;;;;;4291533;33;20033;-71
2021/05/07 05:07:50;;;;;;;;;;;7.10;86.20;;;;;;4291794;33;20008;-70
2021/05/07 05:10:17;;;;;;;;;;;7.20;86.30;;;;;;4304877;33;20400;-71
2021/05/07 05:12:44;;;;;;;;;;;7.20;86.20;;;;;;4304862;33;20434;-71
2021/05/07 05:15:11;;;;;;;;;;;7.10;86.20;;;;;;4305013;33;20010;-71
2021/05/07 05:17:38;;;;;;;;;;;7.20;86.10;;;;;;4303986;33;20065;-70
2021/05/07 05:20:05;;;;;;;;;;;7.20;86.30;;;;;;4305280;33;20384;-71
2021/05/07 05:22:32;;;;;;;;;;;7.20;86.30;;;;;;4305382;33;20024;-71
2021/05/07 05:25:04;;;;;;;;;;;7.20;86.30;;;;;;4303309;33;20081;-71
2021/05/07 05:27:32;;;;;;;;;;;7.20;86.30;;;;;;4305163;33;20017;-70
2021/05/07 05:29:58;;;;;;;;;;;7.20;86.30;;;;;;4303860;33;20084;-71
2021/05/07 05:32:25;;;;;;;;;;;7.20;86.40;;;;;;4304892;33;20006;-71
2021/05/07 05:34:53;;;;;;;;;;;7.10;86.30;;;;;;4291549;33;19998;-71
2021/05/07 05:37:20;;;;;;;;;;;7.10;86.50;;;;;;4304700;33;20024;-71
2021/05/07 05:39:47;;;;;;;;;;;7.10;86.50;;;;;;4291268;33;20018;-71
2021/05/07 05:42:31;;;;;;;;;;;7.00;86.60;;;;;;4303898;33;20028;-71
2021/05/07 05:44:58;;;;;;;;;;;7.00;86.80;;;;;;4304164;33;20073;-71
2021/05/07 05:47:25;;;;;;;;;;;7.00;86.90;;;;;;4303191;33;20010;-71
2021/05/07 05:49:56;;;;;;;;;;;7.00;87.00;;;;;;4304406;33;20017;-71
2021/05/07 05:52:23;;;;;;;;;;;7.00;87.00;;;;;;4304723;33;20014;-71
2021/05/07 05:54:50;;;;;;;;;;;6.90;87.00;;;;;;4291223;33;20396;-71
2021/05/07 05:57:19;;;;;;;;;;;6.90;86.90;;;;;;4304344;33;20017;-71
2021/05/07 05:59:47;;;;;;;;;;;6.90;86.90;;;;;;4304385;33;20010;-71
2021/05/07 06:02:14;;;;;;;;;;;6.90;86.90;;;;;;4304088;33;20024;-71
2021/05/07 06:04:41;;;;;;;;;;;6.90;87.10;;;;;;4303470;33;20020;-71
2021/05/07 06:07:08;;;;;;;;;;;6.90;87.10;;;;;;4304184;33;20121;-71
2021/05/07 06:09:35;;;;;;;;;;;6.90;87.10;;;;;;4304089;33;20010;-71
2021/05/07 06:12:06;;;;;;;;;;;6.90;87.20;;;;;;4303997;33;19995;-71
2021/05/07 06:14:33;;;;;;;;;;;6.90;87.30;;;;;;4304084;33;20025;-71
2021/05/07 06:17:07;;;;;;;;;;;6.90;87.40;;;;;;4290945;33;20007;-71
2021/05/07 06:19:33;;;;;;;;;;;6.90;87.40;;;;;;4303878;33;20044;-71
2021/05/07 06:22:00;;;;;;;;;;;6.90;87.50;;;;;;4290938;33;19995;-71
2021/05/07 06:24:29;;;;;;;;;;;6.90;87.50;;;;;;4304444;33;20447;-71
2021/05/07 06:26:56;;;;;;;;;;;6.90;87.60;;;;;;4303874;33;20022;-71
2021/05/07 06:29:22;;;;;;;;;;;7.00;87.60;;;;;;4303908;33;20388;-71
2021/05/07 06:31:49;;;;;;;;;;;7.00;87.90;;;;;;4303464;33;20016;-71
2021/05/07 06:34:16;;;;;;;;;;;7.00;88.10;;;;;;4303583;33;20017;-71
2021/05/07 06:36:42;;;;;;;;;;;7.00;88.00;;;;;;4303803;33;20479;-71
2021/05/07 06:39:09;;;;;;;;;;;7.00;88.10;;;;;;4290623;33;20024;-71
2021/05/07 06:41:36;;;;;;;;;;;7.00;88.10;;;;;;4303707;33;20416;-71
2021/05/07 06:44:04;;;;;;;;;;;7.00;88.20;;;;;;4303630;33;20396;-71
2021/05/07 06:46:31;;;;;;;;;;;6.90;88.00;;;;;;4303572;33;20368;-71
2021/05/07 06:48:57;;;;;;;;;;;7.00;87.90;;;;;;4302909;33;20018;-71
2021/05/07 06:51:26;;;;;;;;;;;6.90;88.00;;;;;;4302540;33;20021;-71
2021/05/07 06:53:54;;;;;;;;;;;7.00;88.00;;;;;;4302797;33;20051;-71
2021/05/07 06:56:21;;;;;;;;;;;7.00;87.90;;;;;;4290322;33;20002;-71
2021/05/07 06:58:48;;;;;;;;;;;7.00;88.10;;;;;;4302670;33;20028;-71
2021/05/07 07:01:14;;;;;;;;;;;7.00;88.10;;;;;;4289767;33;20002;-71
2021/05/07 07:03:41;;;;;;;;;;;7.00;88.40;;;;;;4290188;33;20395;-71
2021/05/07 07:06:08;;;;;;;;;;;7.00;88.40;;;;;;4303043;33;20073;-71
2021/05/07 07:08:35;;;;;;;;;;;7.00;88.50;;;;;;4303205;33;20017;-71
2021/05/07 07:11:02;;;;;;;;;;;7.00;88.30;;;;;;4303335;33;20021;-71
2021/05/07 07:13:28;;;;;;;;;;;7.00;88.10;;;;;;4303399;33;20057;-71
2021/05/07 07:15:55;;;;;;;;;;;7.10;87.90;;;;;;4303466;33;20020;-71
2021/05/07 07:18:22;;;;;;;;;;;7.10;87.90;;;;;;4303274;33;20012;-71
2021/05/07 07:20:49;;;;;;;;;;;7.10;87.70;;;;;;4290173;33;20079;-71
2021/05/07 07:23:16;;;;;;;;;;;7.10;87.50;;;;;;4303019;33;20021;-71
2021/05/07 07:25:43;;;;;;;;;;;7.10;87.40;;;;;;4303404;33;20395;-70
2021/05/07 07:28:11;;;;;;;;;;;7.10;87.20;;;;;;4290057;33;20029;-71
2021/05/07 07:30:37;;;;;;;;;;;7.20;87.10;;;;;;4302717;33;20385;-71
2021/05/07 07:33:04;;;;;;;;;;;7.20;87.10;;;;;;4302958;33;20006;-70
2021/05/07 07:35:31;;;;;;;;;;;7.20;87.00;;;;;;4302648;33;20018;-70
2021/05/07 07:37:58;;;;;;;;;;;7.20;87.10;;;;;;4303295;33;20010;-70
2021/05/07 07:40:24;;;;;;;;;;;7.20;86.90;;;;;;4301983;33;20018;-70
2021/05/07 07:42:51;;;;;;;;;;;7.20;86.90;;;;;;4301744;33;20057;-70
2021/05/07 07:45:18;;;;;;;;;;;7.20;86.70;;;;;;4303149;33;20013;-70
2021/05/07 07:47:44;;;;;;;;;;;7.20;86.50;;;;;;4301871;33;20014;-70
2021/05/07 07:50:12;;;;;;;;;;;7.30;86.40;;;;;;4302730;33;20329;-70
2021/05/07 07:52:39;;;;;;;;;;;7.30;86.40;;;;;;4302762;33;20075;-70
2021/05/07 07:55:07;;;;;;;;;;;7.30;86.10;;;;;;4301775;33;20024;-70
2021/05/07 07:57:34;;;;;;;;;;;7.40;86.10;;;;;;4289668;33;20069;-70
2021/05/07 08:00:00;;;;;;;;;;;7.40;86.20;;;;;;4302738;33;20020;-70
2021/05/07 08:02:28;;;;;;;;;;;7.40;86.20;;;;;;4302215;33;20024;-70
2021/05/07 08:04:55;;;;;;;;;;;7.30;86.20;;;;;;4302787;33;20006;-70
2021/05/07 08:07:21;;;;;;;;;;;7.40;86.10;;;;;;4302908;33;20014;-70
2021/05/07 08:09:50;;;;;;;;;;;7.40;86.10;;;;;;4301402;33;20025;-70
2021/05/07 08:12:16;;;;;;;;;;;7.40;85.80;;;;;;4302752;33;20018;-70
2021/05/07 08:14:43;;;;;;;;;;;7.40;85.90;;;;;;4302519;33;20010;-70
2021/05/07 08:17:10;;;;;;;;;;;7.50;85.80;;;;;;4302657;33;20007;-70
2021/05/07 08:19:42;;;;;;;;;;;7.50;85.60;;;;;;4302663;33;20018;-70
2021/05/07 08:22:08;;;;;;;;;;;7.50;85.60;;;;;;4302648;33;20069;-70
2021/05/07 08:24:35;;;;;;;;;;;7.50;85.60;;;;;;4302449;33;20021;-70
2021/05/07 08:27:02;;;;;;;;;;;7.50;85.50;;;;;;4302423;33;20061;-70
2021/05/07 08:29:28;;;;;;;;;;;7.50;85.40;;;;;;4302546;33;20510;-70
2021/05/07 08:31:55;;;;;;;;;;;7.50;85.30;;;;;;4302457;33;20002;-70
2021/05/07 08:34:22;;;;;;;;;;;7.50;85.40;;;;;;4302239;33;20020;-70
2021/05/07 08:36:48;;;;;;;;;;;7.50;85.20;;;;;;4302288;33;20076;-70
2021/05/07 08:39:15;;;;;;;;;;;7.50;85.00;;;;;;4302285;33;20017;-70
2021/05/07 08:41:43;;;;;;;;;;;7.50;84.80;;;;;;4302422;33;20006;-69
2021/05/07 08:44:09;;;;;;;;;;;7.60;84.70;;;;;;4302351;33;20396;-70
2021/05/07 08:46:39;;;;;;;;;;;7.60;84.70;;;;;;4300905;33;20018;-70
2021/05/07 08:49:07;;;;;;;;;;;7.60;84.60;;;;;;4302239;33;20024;-69
2021/05/07 08:51:34;;;;;;;;;;;7.60;84.70;;;;;;4302340;33;20014;-70
2021/05/07 08:54:01;;;;;;;;;;;7.70;84.80;;;;;;4302434;33;20010;-70
2021/05/07 08:56:34;;;;;;;;;;;7.60;84.60;;;;;;4302097;33;20403;-70
2021/05/07 08:59:00;;;;;;;;;;;7.60;84.50;;;;;;4301992;33;27003;-70
2021/05/07 09:01:46;;;;;;;;;;;7.70;85.20;;;;;;4301909;33;20005;-70
2021/05/07 09:04:14;;;;;;;;;;;7.70;84.30;;;;;;4288983;33;19995;-70
2021/05/07 09:06:44;;;;;;;;;;;7.70;84.40;;;;;;4288777;33;19999;-70
2021/05/07 09:09:18;;;;;;;;;;;7.70;84.50;;;;;;4302314;33;20019;-70
2021/05/07 09:11:45;;;;;;;;;;;7.70;84.50;;;;;;4302461;33;20018;-70
2021/05/07 09:14:11;;;;;;;;;;;7.60;84.20;;;;;;4302130;33;20018;-70
2021/05/07 09:16:48;;;;;;;;;;;7.70;84.20;;;;;;4301416;33;20028;-70
2021/05/07 09:19:21;;;;;;;;;;;7.70;84.10;;;;;;4302664;33;20022;-70
2021/05/07 09:21:48;;;;;;;;;;;7.70;83.90;;;;;;4290388;33;20014;-70
2021/05/07 09:24:15;;;;;;;;;;;7.80;83.90;;;;;;4303830;33;20018;-69
2021/05/07 09:26:48;;;;;;;;;;;7.80;83.80;;;;;;4304906;33;19999;-69
2021/05/07 09:29:19;;;;;;;;;;;7.80;83.80;;;;;;4304723;33;20024;-70
2021/05/07 09:31:48;;;;;;;;;;;7.80;83.80;;;;;;4304565;33;20360;-69
2021/05/07 09:34:15;;;;;;;;;;;7.80;83.60;;;;;;4304825;33;20010;-70
2021/05/07 09:36:42;;;;;;;;;;;7.90;83.70;;;;;;4304626;33;20007;-69
2021/05/07 09:39:13;;;;;;;;;;;7.80;83.70;;;;;;4304310;33;20447;-70
2021/05/07 09:41:50;;;;;;;;;;;7.90;83.60;;;;;;4304907;33;20010;-70
2021/05/07 09:44:18;;;;;;;;;;;7.90;83.50;;;;;;4305174;33;20028;-70
2021/05/07 09:46:46;;;;;;;;;;;7.90;83.60;;;;;;4304459;33;20003;-69
2021/05/07 09:49:31;;;;;;;;;;;8.00;83.50;;;;;;4304406;33;20006;-69
2021/05/07 09:51:58;;;;;;;;;;;8.00;83.50;;;;;;4304215;33;20700;-69
2021/05/07 09:54:25;;;;;;;;;;;8.00;83.30;;;;;;4304687;33;20371;-69
2021/05/07 09:56:54;;;;;;;;;;;8.00;83.10;;;;;;4304164;33;20025;-70
2021/05/07 09:59:21;;;;;;;;;;;8.00;83.00;;;;;;4304229;33;20010;-69
2021/05/07 10:01:49;;;;;;;;;;;8.10;83.00;;;;;;4303863;33;20400;-70
2021/05/07 10:04:16;;;;;;;;;;;8.10;83.10;;;;;;4290952;33;20347;-70
2021/05/07 10:06:43;;;;;;;;;;;8.10;82.90;;;;;;4304236;33;20021;-69
2021/05/07 10:09:10;;;;;;;;;;;8.10;82.60;;;;;;4291173;33;20396;-70
2021/05/07 10:11:41;;;;;;;;;;;8.10;82.70;;;;;;4302958;33;20047;-70
2021/05/07 10:14:15;;;;;;;;;;;8.20;82.60;;;;;;4304099;33;20010;-69
2021/05/07 10:16:42;;;;;;;;;;;8.10;82.40;;;;;;4304204;33;20046;-70
2021/05/07 10:19:13;;;;;;;;;;;8.20;82.10;;;;;;4304014;33;20010;-70
2021/05/07 10:21:47;;;;;;;;;;;8.20;82.30;;;;;;4304122;33;20041;-70
2021/05/07 10:24:16;;;;;;;;;;;8.20;82.20;;;;;;4291443;33;20014;-70
2021/05/07 10:26:45;;;;;;;;;;;8.30;82.00;;;;;;4303836;33;20085;-70
2021/05/07 10:29:16;;;;;;;;;;;8.30;82.10;;;;;;4302889;33;20022;-69
2021/05/07 10:31:43;;;;;;;;;;;8.30;81.80;;;;;;4303898;33;20040;-70
2021/05/07 10:34:10;;;;;;;;;;;8.40;81.90;;;;;;4303364;33;20003;-70
2021/05/07 10:37:10;;;;;;;;;;;8.40;81.70;;;;;;4303881;33;20438;-70
2021/05/07 10:39:49;;;;;;;;;;;8.40;81.50;;;;;;4303646;33;20047;-70
2021/05/07 10:42:16;;;;;;;;;;;8.50;81.40;;;;;;4303624;33;21223;-70
2021/05/07 10:44:43;;;;;;;;;;;8.40;81.30;;;;;;4303582;33;20045;-70
2021/05/07 10:47:10;;;;;;;;;;;8.50;81.40;;;;;;4303166;33;20028;-70
2021/05/07 10:49:41;;;;;;;;;;;8.50;81.40;;;;;;4303954;33;20010;-70
2021/05/07 10:52:08;;;;;;;;;;;8.50;81.30;;;;;;4303783;33;19998;-70
2021/05/07 10:54:53;;;;;;;;;;;8.50;81.20;;;;;;4303639;33;20016;-70
2021/05/07 10:57:19;;;;;;;;;;;8.60;81.20;;;;;;4303336;33;20073;-70
2021/05/07 10:59:56;;;;;;;;;;;8.60;80.90;;;;;;4303395;33;20015;-70
2021/05/07 11:02:23;;;;;;;;;;;8.60;80.80;;;;;;4303177;33;20012;-70
2021/05/07 11:04:50;;;;;;;;;;;8.60;80.60;;;;;;4303094;33;20045;-69
2021/05/07 11:07:26;;;;;;;;;;;8.60;80.60;;;;;;4303403;33;20002;-69
2021/05/07 11:10:06;;;;;;;;;;;8.60;80.50;;;;;;4290014;33;19995;-70
2021/05/07 11:12:34;;;;;;;;;;;8.70;80.50;;;;;;4303486;33;20018;-70
2021/05/07 11:15:00;;;;;;;;;;;8.70;80.20;;;;;;4303121;33;20010;-70
2021/05/07 11:17:27;;;;;;;;;;;8.70;80.10;;;;;;4289686;33;20002;-70
2021/05/07 11:19:55;;;;;;;;;;;8.70;79.80;;;;;;4303287;33;20016;-70
2021/05/07 11:22:27;;;;;;;;;;;8.70;79.50;;;;;;4302864;33;20027;-70
2021/05/07 11:24:54;;;;;;;;;;;8.80;79.60;;;;;;4303325;33;20017;-70
2021/05/07 11:27:23;;;;;;;;;;;8.80;79.10;;;;;;4303093;33;20025;-70
2021/05/07 11:29:52;;;;;;;;;;;8.80;79.20;;;;;;4303213;33;20006;-70
2021/05/07 11:32:22;;;;;;;;;;;8.80;79.60;;;;;;4302830;33;20534;-70
2021/05/07 11:34:55;;;;;;;;;;;8.80;79.30;;;;;;4303386;33;20443;-70
2021/05/07 11:37:22;;;;;;;;;;;8.90;79.50;;;;;;4302629;33;20002;-70
2021/05/07 11:40:01;;;;;;;;;;;9.00;79.10;;;;;;4303170;33;20387;-70
2021/05/07 11:42:35;;;;;;;;;;;9.00;78.00;;;;;;4303258;33;20089;-69
2021/05/07 11:45:06;;;;;;;;;;;9.10;78.50;;;;;;4302950;33;20020;-70
2021/05/07 11:47:34;;;;;;;;;;;9.20;78.80;;;;;;4302604;33;20072;-70
2021/05/07 11:50:01;;;;;;;;;;;9.20;78.60;;;;;;4302624;33;20010;-70
2021/05/07 11:52:41;;;;;;;;;;;9.30;78.50;;;;;;4301952;33;20018;-70
2021/05/07 11:55:28;;;;;;;;;;;9.30;78.20;;;;;;4289708;33;20021;-70
2021/05/07 11:57:59;;;;;;;;;;;9.30;77.50;;;;;;4302584;33;20387;-70
2021/05/07 12:00:26;;;;;;;;;;;9.30;77.70;;;;;;4302878;33;20010;-70
2021/05/07 12:02:58;;;;;;;;;;;9.40;78.00;;;;;;4302394;33;20014;-70
2021/05/07 12:05:29;;;;;;;;;;;9.50;77.90;;;;;;4302919;33;20014;-70
2021/05/07 12:07:57;;;;;;;;;;;9.50;77.70;;;;;;4302705;33;20010;-70
2021/05/07 12:10:27;;;;;;;;;;;9.50;77.60;;;;;;4302567;33;20029;-70
2021/05/07 12:12:57;;;;;;;;;;;9.50;77.70;;;;;;4289468;33;20002;-70
2021/05/07 12:15:27;;;;;;;;;;;9.50;77.10;;;;;;4300894;33;20010;-70
2021/05/07 12:17:55;;;;;;;;;;;9.60;77.30;;;;;;4302384;33;20044;-70
2021/05/07 12:20:23;;;;;;;;;;;9.60;77.00;;;;;;4302349;33;20006;-70
2021/05/07 12:22:54;;;;;;;;;;;9.60;77.00;;;;;;4289207;33;20053;-70
2021/05/07 12:25:22;;;;;;;;;;;9.70;76.90;;;;;;4302664;33;20010;-70
2021/05/07 12:27:49;;;;;;;;;;;9.70;76.80;;;;;;4301556;33;20091;-70
2021/05/07 12:30:17;;;;;;;;;;;9.70;76.10;;;;;;4289221;33;20012;-70
2021/05/07 12:32:52;;;;;;;;;;;9.70;76.70;;;;;;4302494;33;20017;-70
2021/05/07 12:35:20;;;;;;;;;;;9.80;76.70;;;;;;4302418;33;20069;-70
2021/05/07 12:37:46;;;;;;;;;;;9.80;76.10;;;;;;4302532;33;20029;-70
2021/05/07 12:40:13;;;;;;;;;;;9.80;76.00;;;;;;4288815;33;20013;-70
2021/05/07 12:42:45;;;;;;;;;;;9.90;76.00;;;;;;4302073;33;20416;-70
2021/05/07 12:45:11;;;;;;;;;;;9.90;76.20;;;;;;4302500;33;20010;-70
2021/05/07 12:47:38;;;;;;;;;;;10.00;76.10;;;;;;4301063;33;20021;-70
2021/05/07 12:50:05;;;;;;;;;;;10.10;75.40;;;;;;4302366;33;20306;-70
2021/05/07 12:52:36;;;;;;;;;;;10.10;75.20;;;;;;4302199;33;20006;-70
2021/05/07 12:55:03;;;;;;;;;;;10.20;75.70;;;;;;4288881;33;20010;-70
2021/05/07 12:57:29;;;;;;;;;;;10.20;75.40;;;;;;4304681;33;20103;-70
2021/05/07 12:59:56;;;;;;;;;;;10.20;75.60;;;;;;4305352;33;20006;-70
2021/05/07 13:02:22;;;;;;;;;;;10.30;75.80;;;;;;4304967;33;20024;-70
2021/05/07 13:04:50;;;;;;;;;;;10.30;74.90;;;;;;4304561;33;20120;-70
2021/05/07 13:07:17;;;;;;;;;;;10.30;75.30;;;;;;4304525;33;20014;-70
2021/05/07 13:09:44;;;;;;;;;;;10.30;75.10;;;;;;4304988;33;20014;-70
2021/05/07 13:12:10;;;;;;;;;;;10.40;75.20;;;;;;4291867;33;20009;-70
2021/05/07 13:14:37;;;;;;;;;;;10.40;74.20;;;;;;4304687;33;20006;-70
2021/05/07 13:17:13;;;;;;;;;;;10.40;74.60;;;;;;4304724;33;20058;-70
2021/05/07 13:19:40;;;;;;;;;;;10.40;74.60;;;;;;4304883;33;20018;-70
2021/05/07 13:22:06;;;;;;;;;;;10.40;74.60;;;;;;4304837;33;20014;-70
2021/05/07 13:24:33;;;;;;;;;;;10.40;74.40;;;;;;4291586;33;20317;-70
2021/05/07 13:27:02;;;;;;;;;;;10.40;74.40;;;;;;4305074;33;20083;-70
2021/05/07 13:29:29;;;;;;;;;;;10.40;74.10;;;;;;4304576;33;20451;-70
2021/05/07 13:31:55;;;;;;;;;;;10.40;74.10;;;;;;4304885;33;20010;-70
2021/05/07 13:34:23;;;;;;;;;;;10.40;74.00;;;;;;4304231;33;20020;-70
2021/05/07 13:36:49;;;;;;;;;;;10.40;74.10;;;;;;4304522;33;20003;-70
2021/05/07 13:39:16;;;;;;;;;;;10.40;74.00;;;;;;4305106;33;20003;-70
2021/05/07 13:41:55;;;;;;;;;;;10.40;74.00;;;;;;4304836;33;20006;-70
2021/05/07 13:44:22;;;;;;;;;;;10.40;73.90;;;;;;4304363;33;20014;-70
2021/05/07 13:46:48;;;;;;;;;;;10.40;73.60;;;;;;4304587;33;20010;-70
2021/05/07 13:49:15;;;;;;;;;;;10.50;73.20;;;;;;4291280;33;20434;-70
2021/05/07 13:51:42;;;;;;;;;;;10.50;73.90;;;;;;4304845;33;20013;-70
2021/05/07 13:54:10;;;;;;;;;;;10.50;74.20;;;;;;4304427;33;20002;-70
2021/05/07 13:56:36;;;;;;;;;;;10.60;74.20;;;;;;4304299;33;20431;-70
2021/05/07 13:59:03;;;;;;;;;;;10.60;74.00;;;;;;4304434;33;20383;-70
2021/05/07 14:01:30;;;;;;;;;;;10.60;73.30;;;;;;4304090;33;20006;-70
2021/05/07 14:03:57;;;;;;;;;;;10.70;73.20;;;;;;4303388;33;20412;-70
2021/05/07 14:06:39;;;;;;;;;;;10.80;73.00;;;;;;4304608;33;20410;-70
2021/05/07 14:09:07;;;;;;;;;;;10.80;73.20;;;;;;4290439;33;20006;-70
2021/05/07 14:11:44;;;;;;;;;;;10.90;73.30;;;;;;4292165;33;20779;-70
2021/05/07 14:14:11;;;;;;;;;;;10.90;72.90;;;;;;4304077;33;20014;-70
2021/05/07 14:16:39;;;;;;;;;;;10.90;73.20;;;;;;4304193;33;20014;-70
2021/05/07 14:19:07;;;;;;;;;;;10.90;73.20;;;;;;4303825;33;20021;-70
2021/05/07 14:21:34;;;;;;;;;;;11.00;73.20;;;;;;4303981;33;20048;-70
2021/05/07 14:24:01;;;;;;;;;;;11.00;72.90;;;;;;4302872;33;20022;-71
2021/05/07 14:26:28;;;;;;;;;;;11.10;72.70;;;;;;4303970;33;20021;-70
2021/05/07 14:28:54;;;;;;;;;;;11.10;73.10;;;;;;4291036;33;20344;-70
2021/05/07 14:31:22;;;;;;;;;;;11.10;72.80;;;;;;4303837;33;20018;-70
2021/05/07 14:33:51;;;;;;;;;;;11.20;72.90;;;;;;4303506;33;20073;-70
2021/05/07 14:36:19;;;;;;;;;;;11.20;72.50;;;;;;4304225;33;20010;-70